GLO1339 SBRP-SBSP
Flight info
| Callsign | GLO1339 |
|---|---|
| Flight time | 0h 34m |
| Altitude | 29000 |
| Route | LOKAR DCT UTLOT |
| Aircraft | B738/M-SDE2E3FGHIRWXY/LB1 |
Departure
| Time | 2026-04-20 00:35 |
|---|---|
| Airport | Leite Lopes Airport (SBRP) |
Arrival
| Time | 2026-04-20 01:09 |
|---|---|
| Airport | Congonhas–Deputado Freitas Nobre Airport (SBSP) |
| Time | Latitude | Longitude | Altitude | Speed | Heading |
|---|---|---|---|---|---|
| 2026-04-20 00:16 | -21.13924 | -47.77491 | 1803 ft | 0 kts | 78° |
| 2026-04-20 00:25 | -21.13924 | -47.77493 | 1804 ft | 1 kts | 81° |
| 2026-04-20 00:25 | -21.13931 | -47.77488 | 1800 ft | 3 kts | 135° |
| 2026-04-20 00:25 | -21.13936 | -47.77485 | 1801 ft | 3 kts | 135° |
| 2026-04-20 00:26 | -21.13927 | -47.77498 | 1804 ft | 3 kts | 83° |
| 2026-04-20 00:26 | -21.13931 | -47.77514 | 1799 ft | 3 kts | 56° |
| 2026-04-20 00:26 | -21.13944 | -47.77527 | 1800 ft | 3 kts | 13° |
| 2026-04-20 00:26 | -21.13963 | -47.77528 | 1801 ft | 2 kts | 347° |
| 2026-04-20 00:27 | -21.13971 | -47.77526 | 1802 ft | 1 kts | 344° |
| 2026-04-20 00:27 | -21.13972 | -47.77525 | 1802 ft | 0 kts | 344° |
| 2026-04-20 00:29 | -21.13960 | -47.77529 | 1800 ft | 7 kts | 344° |
| 2026-04-20 00:29 | -21.13903 | -47.77546 | 1803 ft | 9 kts | 348° |
| 2026-04-20 00:29 | -21.13863 | -47.77506 | 1801 ft | 9 kts | 69° |
| 2026-04-20 00:30 | -21.13830 | -47.77457 | 1803 ft | 8 kts | 17° |
| 2026-04-20 00:30 | -21.13772 | -47.77470 | 1803 ft | 9 kts | 344° |
| 2026-04-20 00:30 | -21.13700 | -47.77491 | 1802 ft | 12 kts | 344° |
| 2026-04-20 00:30 | -21.13618 | -47.77518 | 1801 ft | 12 kts | 342° |
| 2026-04-20 00:31 | -21.13530 | -47.77546 | 1802 ft | 16 kts | 344° |
| 2026-04-20 00:31 | -21.13405 | -47.77586 | 1802 ft | 20 kts | 343° |
| 2026-04-20 00:31 | -21.13275 | -47.77627 | 1804 ft | 19 kts | 343° |
| 2026-04-20 00:31 | -21.13150 | -47.77667 | 1801 ft | 18 kts | 343° |
| 2026-04-20 00:32 | -21.13029 | -47.77709 | 1802 ft | 18 kts | 343° |
| 2026-04-20 00:32 | -21.12911 | -47.77744 | 1804 ft | 17 kts | 343° |
| 2026-04-20 00:32 | -21.12799 | -47.77781 | 1804 ft | 17 kts | 343° |
| 2026-04-20 00:32 | -21.12688 | -47.77816 | 1803 ft | 17 kts | 348° |
| 2026-04-20 00:33 | -21.12585 | -47.77773 | 1802 ft | 16 kts | 40° |
| 2026-04-20 00:33 | -21.12535 | -47.77705 | 1803 ft | 10 kts | 88° |
| 2026-04-20 00:33 | -21.12566 | -47.77681 | 1804 ft | 5 kts | 158° |
| 2026-04-20 00:33 | -21.12571 | -47.77679 | 1804 ft | 0 kts | 161° |
| 2026-04-20 00:34 | -21.12719 | -47.77629 | 1804 ft | 61 kts | 163° |
| 2026-04-20 00:34 | -21.13390 | -47.77415 | 1801 ft | 137 kts | 163° |
| 2026-04-20 00:34 | -21.14469 | -47.77055 | 2143 ft | 171 kts | 161° |
| 2026-04-20 00:35 | -21.15569 | -47.76689 | 3221 ft | 162 kts | 161° |
| 2026-04-20 00:35 | -21.16760 | -47.76310 | 3704 ft | 196 kts | 162° |
| 2026-04-20 00:35 | -21.18172 | -47.75869 | 3963 ft | 225 kts | 162° |
| 2026-04-20 00:35 | -21.19734 | -47.75377 | 4384 ft | 247 kts | 163° |
| 2026-04-20 00:36 | -21.21479 | -47.74902 | 4893 ft | 267 kts | 167° |
| 2026-04-20 00:36 | -21.23318 | -47.74543 | 5860 ft | 270 kts | 172° |
| 2026-04-20 00:36 | -21.25168 | -47.74314 | 6817 ft | 273 kts | 175° |
| 2026-04-20 00:36 | -21.27077 | -47.74196 | 7744 ft | 276 kts | 179° |
| 2026-04-20 00:37 | -21.29019 | -47.74178 | 8676 ft | 280 kts | 181° |
| 2026-04-20 00:37 | -21.30976 | -47.74254 | 9669 ft | 281 kts | 184° |
| 2026-04-20 00:37 | -21.32944 | -47.74427 | 10503 ft | 289 kts | 186° |
| 2026-04-20 00:37 | -21.35035 | -47.74673 | 10768 ft | 316 kts | 187° |
| 2026-04-20 00:38 | -21.37294 | -47.74962 | 11163 ft | 334 kts | 187° |
| 2026-04-20 00:38 | -21.39596 | -47.75262 | 11890 ft | 339 kts | 187° |
| 2026-04-20 00:38 | -21.41952 | -47.75569 | 12722 ft | 342 kts | 187° |
| 2026-04-20 00:38 | -21.44331 | -47.75878 | 13517 ft | 345 kts | 186° |
| 2026-04-20 00:39 | -21.46728 | -47.76188 | 14225 ft | 349 kts | 186° |
| 2026-04-20 00:39 | -21.49187 | -47.76505 | 14660 ft | 361 kts | 186° |
| 2026-04-20 00:39 | -21.51709 | -47.76829 | 15172 ft | 368 kts | 186° |
| 2026-04-20 00:39 | -21.54271 | -47.77159 | 15818 ft | 371 kts | 186° |
| 2026-04-20 00:40 | -21.56847 | -47.77490 | 16497 ft | 374 kts | 186° |
| 2026-04-20 00:40 | -21.59439 | -47.77824 | 17137 ft | 377 kts | 186° |
| 2026-04-20 00:40 | -21.62054 | -47.78160 | 17757 ft | 380 kts | 186° |
| 2026-04-20 00:40 | -21.64693 | -47.78499 | 18356 ft | 383 kts | 186° |
| 2026-04-20 00:41 | -21.67343 | -47.78840 | 18979 ft | 383 kts | 187° |
| 2026-04-20 00:41 | -21.69945 | -47.79175 | 19723 ft | 379 kts | 187° |
| 2026-04-20 00:41 | -21.72554 | -47.79511 | 20509 ft | 376 kts | 187° |
| 2026-04-20 00:41 | -21.75151 | -47.79845 | 21243 ft | 375 kts | 187° |
| 2026-04-20 00:42 | -21.77732 | -47.80178 | 21976 ft | 374 kts | 188° |
| 2026-04-20 00:42 | -21.80306 | -47.80510 | 22740 ft | 372 kts | 188° |
| 2026-04-20 00:42 | -21.82872 | -47.80840 | 23527 ft | 370 kts | 188° |
| 2026-04-20 00:42 | -21.85416 | -47.81168 | 24186 ft | 368 kts | 189° |
| 2026-04-20 00:43 | -21.87097 | -47.81385 | 24603 ft | 368 kts | 189° |
| 2026-04-20 00:43 | -21.90508 | -47.81826 | 24995 ft | 368 kts | 189° |
| 2026-04-20 00:43 | -21.93089 | -47.82160 | 25012 ft | 381 kts | 189° |
| 2026-04-20 00:43 | -21.95738 | -47.82504 | 25031 ft | 393 kts | 189° |
| 2026-04-20 00:44 | -21.98499 | -47.82863 | 25036 ft | 406 kts | 189° |
| 2026-04-20 00:44 | -22.01338 | -47.83230 | 25035 ft | 416 kts | 189° |
| 2026-04-20 00:44 | -22.04247 | -47.83606 | 25032 ft | 426 kts | 189° |
| 2026-04-20 00:44 | -22.07222 | -47.83991 | 25039 ft | 434 kts | 188° |
| 2026-04-20 00:45 | -22.10245 | -47.84381 | 25029 ft | 441 kts | 188° |
| 2026-04-20 00:45 | -22.13315 | -47.84778 | 25026 ft | 447 kts | 188° |
| 2026-04-20 00:45 | -22.16420 | -47.85179 | 25027 ft | 452 kts | 188° |
| 2026-04-20 00:45 | -22.19561 | -47.85586 | 25021 ft | 456 kts | 188° |
| 2026-04-20 00:46 | -22.22721 | -47.85995 | 25029 ft | 459 kts | 188° |
| 2026-04-20 00:46 | -22.25901 | -47.86407 | 25023 ft | 460 kts | 188° |
| 2026-04-20 00:46 | -22.29081 | -47.86819 | 25015 ft | 459 kts | 188° |
| 2026-04-20 00:46 | -22.32253 | -47.87231 | 25022 ft | 458 kts | 188° |
| 2026-04-20 00:47 | -22.35415 | -47.87641 | 25024 ft | 458 kts | 188° |
| 2026-04-20 00:47 | -22.37517 | -47.87915 | 25015 ft | 458 kts | 188° |
| 2026-04-20 00:47 | -22.40676 | -47.88325 | 25021 ft | 458 kts | 188° |
| 2026-04-20 00:47 | -22.43860 | -47.88372 | 25012 ft | 462 kts | 174° |
| 2026-04-20 00:48 | -22.46968 | -47.87401 | 25030 ft | 468 kts | 159° |
| 2026-04-20 00:48 | -22.49808 | -47.85649 | 25017 ft | 474 kts | 146° |
| 2026-04-20 00:48 | -22.52186 | -47.83145 | 25029 ft | 479 kts | 133° |
| 2026-04-20 00:48 | -22.54296 | -47.80341 | 25029 ft | 481 kts | 131° |
| 2026-04-20 00:49 | -22.56362 | -47.77499 | 25022 ft | 481 kts | 131° |
| 2026-04-20 00:49 | -22.58430 | -47.74646 | 25017 ft | 481 kts | 131° |
| 2026-04-20 00:49 | -22.60491 | -47.71832 | 25019 ft | 481 kts | 131° |
| 2026-04-20 00:49 | -22.62590 | -47.69002 | 25017 ft | 481 kts | 131° |
| 2026-04-20 00:50 | -22.64697 | -47.66183 | 25019 ft | 481 kts | 132° |
| 2026-04-20 00:50 | -22.66805 | -47.63374 | 25013 ft | 477 kts | 132° |
| 2026-04-20 00:50 | -22.68843 | -47.60654 | 25002 ft | 454 kts | 132° |
| 2026-04-20 00:50 | -22.70791 | -47.58051 | 25001 ft | 434 kts | 132° |
| 2026-04-20 00:51 | -22.72654 | -47.55565 | 24964 ft | 417 kts | 132° |
| 2026-04-20 00:51 | -22.74466 | -47.53147 | 24616 ft | 409 kts | 132° |
| 2026-04-20 00:51 | -22.74588 | -47.52984 | 24591 ft | 409 kts | 132° |
| 2026-04-20 00:52 | -22.75436 | -47.51852 | 24378 ft | 407 kts | 132° |
| 2026-04-20 00:52 | -22.75488 | -47.51782 | 24364 ft | 407 kts | 132° |
| 2026-04-20 00:52 | -22.77273 | -47.49399 | 23901 ft | 404 kts | 132° |
| 2026-04-20 00:53 | -22.79037 | -47.47039 | 23364 ft | 403 kts | 132° |
| 2026-04-20 00:53 | -22.80793 | -47.44686 | 22805 ft | 400 kts | 132° |
| 2026-04-20 00:53 | -22.82536 | -47.42350 | 22288 ft | 397 kts | 132° |
| 2026-04-20 00:53 | -22.84262 | -47.40034 | 21779 ft | 393 kts | 131° |
| 2026-04-20 00:54 | -22.85974 | -47.37736 | 21284 ft | 390 kts | 131° |
| 2026-04-20 00:54 | -22.87668 | -47.35461 | 20809 ft | 386 kts | 131° |
| 2026-04-20 00:54 | -22.89350 | -47.33202 | 20315 ft | 383 kts | 131° |
| 2026-04-20 00:54 | -22.91015 | -47.30965 | 19842 ft | 380 kts | 131° |
| 2026-04-20 00:55 | -22.92648 | -47.28771 | 19345 ft | 378 kts | 131° |
| 2026-04-20 00:55 | -22.94295 | -47.26555 | 18866 ft | 375 kts | 131° |
| 2026-04-20 00:55 | -22.95928 | -47.24359 | 18385 ft | 373 kts | 131° |
| 2026-04-20 00:55 | -22.97547 | -47.22179 | 17856 ft | 370 kts | 131° |
| 2026-04-20 00:56 | -22.99156 | -47.20013 | 17365 ft | 366 kts | 131° |
| 2026-04-20 00:56 | -23.00748 | -47.17870 | 16895 ft | 362 kts | 131° |
| 2026-04-20 00:56 | -23.02582 | -47.16050 | 16405 ft | 355 kts | 150° |
| 2026-04-20 00:56 | -23.04813 | -47.14994 | 15981 ft | 348 kts | 166° |
| 2026-04-20 00:57 | -23.07170 | -47.14439 | 15552 ft | 344 kts | 169° |
| 2026-04-20 00:57 | -23.09513 | -47.13954 | 15108 ft | 342 kts | 170° |
| 2026-04-20 00:57 | -23.11846 | -47.13475 | 14666 ft | 340 kts | 170° |
| 2026-04-20 00:57 | -23.14158 | -47.12990 | 14232 ft | 337 kts | 169° |
| 2026-04-20 00:58 | -23.16431 | -47.12501 | 13779 ft | 336 kts | 169° |
| 2026-04-20 00:58 | -23.18719 | -47.12002 | 13313 ft | 333 kts | 169° |
| 2026-04-20 00:58 | -23.20983 | -47.11504 | 12868 ft | 330 kts | 169° |
| 2026-04-20 00:58 | -23.23229 | -47.11009 | 12435 ft | 327 kts | 169° |
| 2026-04-20 00:59 | -23.25450 | -47.10519 | 12023 ft | 325 kts | 169° |
| 2026-04-20 00:59 | -23.27633 | -47.10040 | 11643 ft | 321 kts | 169° |
| 2026-04-20 00:59 | -23.29819 | -47.09561 | 11268 ft | 318 kts | 169° |
| 2026-04-20 00:59 | -23.31987 | -47.09087 | 10891 ft | 316 kts | 170° |
| 2026-04-20 01:00 | -23.34144 | -47.08615 | 10521 ft | 313 kts | 170° |
| 2026-04-20 01:00 | -23.36275 | -47.08148 | 10163 ft | 311 kts | 170° |
| 2026-04-20 01:00 | -23.38374 | -47.07687 | 10032 ft | 300 kts | 170° |
| 2026-04-20 01:00 | -23.40341 | -47.07191 | 9984 ft | 281 kts | 161° |
| 2026-04-20 01:01 | -23.41948 | -47.06077 | 9680 ft | 274 kts | 137° |
| 2026-04-20 01:01 | -23.43071 | -47.04436 | 9215 ft | 276 kts | 118° |
| 2026-04-20 01:01 | -23.43713 | -47.02461 | 8724 ft | 277 kts | 109° |
| 2026-04-20 01:01 | -23.44235 | -47.00450 | 8300 ft | 275 kts | 108° |
| 2026-04-20 01:02 | -23.44738 | -46.98450 | 7986 ft | 271 kts | 108° |
| 2026-04-20 01:02 | -23.45240 | -46.96461 | 7750 ft | 274 kts | 108° |
| 2026-04-20 01:02 | -23.45751 | -46.94455 | 7433 ft | 274 kts | 109° |
| 2026-04-20 01:02 | -23.46261 | -46.92466 | 7181 ft | 271 kts | 109° |
| 2026-04-20 01:03 | -23.46762 | -46.90522 | 6927 ft | 269 kts | 109° |
| 2026-04-20 01:03 | -23.47267 | -46.88570 | 6676 ft | 267 kts | 109° |
| 2026-04-20 01:03 | -23.47768 | -46.86636 | 6440 ft | 264 kts | 109° |
| 2026-04-20 01:03 | -23.48265 | -46.84717 | 6185 ft | 262 kts | 109° |
| 2026-04-20 01:04 | -23.48759 | -46.82815 | 5925 ft | 259 kts | 109° |
| 2026-04-20 01:04 | -23.49247 | -46.80932 | 5700 ft | 257 kts | 109° |
| 2026-04-20 01:04 | -23.49727 | -46.79070 | 5479 ft | 250 kts | 109° |
| 2026-04-20 01:04 | -23.50176 | -46.77325 | 5380 ft | 229 kts | 109° |
| 2026-04-20 01:05 | -23.50593 | -46.75709 | 5240 ft | 212 kts | 109° |
| 2026-04-20 01:05 | -23.50997 | -46.74230 | 5121 ft | 194 kts | 117° |
| 2026-04-20 01:05 | -23.51818 | -46.73207 | 5009 ft | 171 kts | 148° |
| 2026-04-20 01:05 | -23.52819 | -46.72498 | 4600 ft | 174 kts | 149° |
| 2026-04-20 01:06 | -23.53833 | -46.71783 | 4376 ft | 178 kts | 149° |
| 2026-04-20 01:06 | -23.54840 | -46.71081 | 4221 ft | 164 kts | 148° |
| 2026-04-20 01:06 | -23.55758 | -46.70440 | 4055 ft | 149 kts | 148° |
| 2026-04-20 01:06 | -23.56601 | -46.69854 | 3894 ft | 139 kts | 147° |
| 2026-04-20 01:07 | -23.57418 | -46.69288 | 3749 ft | 143 kts | 147° |
| 2026-04-20 01:07 | -23.58258 | -46.68706 | 3541 ft | 142 kts | 146° |
| 2026-04-20 01:07 | -23.59084 | -46.68135 | 3333 ft | 137 kts | 147° |
| 2026-04-20 01:07 | -23.59876 | -46.67597 | 3106 ft | 135 kts | 146° |
| 2026-04-20 01:08 | -23.60662 | -46.67039 | 2911 ft | 134 kts | 147° |
| 2026-04-20 01:08 | -23.61450 | -46.66493 | 2745 ft | 134 kts | 148° |
| 2026-04-20 01:08 | -23.62219 | -46.65957 | 2615 ft | 128 kts | 148° |
| 2026-04-20 01:08 | -23.62866 | -46.65506 | 2607 ft | 85 kts | 148° |
| 2026-04-20 01:09 | -23.63078 | -46.65375 | 2609 ft | 19 kts | 168° |
| 2026-04-20 01:09 | -23.63159 | -46.65389 | 2605 ft | 1 kts | 218° |
| 2026-04-20 01:09 | -23.63162 | -46.65430 | 2602 ft | 11 kts | 298° |
| 2026-04-20 01:09 | -23.63103 | -46.65489 | 2601 ft | 12 kts | 326° |
| 2026-04-20 01:10 | -23.63027 | -46.65520 | 2602 ft | 12 kts | 352° |
| 2026-04-20 01:10 | -23.62889 | -46.65601 | 2602 ft | 10 kts | 326° |
| 2026-04-20 01:10 | -23.62844 | -46.65633 | 2602 ft | 0 kts | 327° |
| 2026-04-20 01:11 | -23.62843 | -46.65633 | 2602 ft | 1 kts | 327° |
| 2026-04-20 01:11 | -23.62806 | -46.65659 | 2602 ft | 13 kts | 327° |
| 2026-04-20 01:11 | -23.62728 | -46.65712 | 2601 ft | 11 kts | 327° |
| 2026-04-20 01:11 | -23.62683 | -46.65751 | 2601 ft | 1 kts | 285° |
| 2026-04-20 01:12 | -23.62689 | -46.65771 | 2600 ft | 5 kts | 246° |
| 2026-04-20 01:12 | -23.62710 | -46.65809 | 2600 ft | 3 kts | 237° |
| 2026-04-20 01:12 | -23.62718 | -46.65822 | 2600 ft | 1 kts | 236° |